Time;durP1;ratioP1;P1;durP2;ratioP2;P2;SDS_P1;SDS_P2;PMS_P1;PMS_P2;Temp;Humidity;BMP_temperature;BMP_pressure;BME280_temperature;BME280_humidity;BME280_pressure;Samples;Min_cycle;Max_cycle;Signal;HPM_P1;HPM_P2
2021/01/19 00:01:51;;;;;;;3.37;1.90;;;5.00;99.90;;;;;;5070302;28;20197;-61
2021/01/19 00:04:18;;;;;;;2.97;1.90;;;5.00;99.90;;;;;;5072650;28;20228;-59
2021/01/19 00:06:44;;;;;;;3.50;2.00;;;5.00;99.90;;;;;;5074306;28;20205;-59
2021/01/19 00:09:10;;;;;;;3.03;1.80;;;4.90;99.90;;;;;;5073811;28;20209;-58
2021/01/19 00:11:37;;;;;;;2.67;1.70;;;5.00;99.90;;;;;;5073763;28;20692;-59
2021/01/19 00:14:04;;;;;;;3.33;2.00;;;4.90;99.90;;;;;;5073625;28;20228;-57
2021/01/19 00:16:30;;;;;;;3.87;2.00;;;4.80;99.90;;;;;;5073731;28;20204;-57
2021/01/19 00:18:56;;;;;;;4.03;1.90;;;4.80;99.90;;;;;;5073889;28;20201;-57
2021/01/19 00:21:22;;;;;;;3.47;1.80;;;4.90;99.90;;;;;;5073617;28;20669;-58
2021/01/19 00:23:48;;;;;;;2.87;1.63;;;4.70;99.90;;;;;;5073457;28;20236;-57
2021/01/19 00:26:15;;;;;;;3.60;1.90;;;4.80;99.90;;;;;;5073650;28;20209;-57
2021/01/19 00:28:41;;;;;;;3.33;1.93;;;4.80;99.90;;;;;;5073652;28;20205;-57
2021/01/19 00:31:09;;;;;;;3.97;1.90;;;4.60;99.90;;;;;;5073297;28;20605;-57
2021/01/19 00:33:35;;;;;;;2.70;1.83;;;4.60;99.90;;;;;;5073648;28;20307;-57
2021/01/19 00:36:01;;;;;;;4.00;2.40;;;4.50;99.90;;;;;;5073696;28;20212;-57
2021/01/19 00:38:27;;;;;;;5.37;2.00;;;4.50;99.90;;;;;;5073716;28;20205;-58
2021/01/19 00:40:54;;;;;;;3.77;2.10;;;4.60;99.90;;;;;;5073522;28;20204;-57
2021/01/19 00:43:20;;;;;;;4.23;2.10;;;4.70;99.90;;;;;;5073366;28;20622;-57
2021/01/19 00:45:46;;;;;;;3.33;1.77;;;4.60;99.90;;;;;;5073307;28;20201;-58
2021/01/19 00:48:13;;;;;;;4.13;2.03;;;4.70;99.90;;;;;;5073607;28;20556;-57
2021/01/19 00:50:39;;;;;;;2.97;1.73;;;4.70;99.90;;;;;;5073665;28;20213;-59
2021/01/19 00:53:05;;;;;;;3.80;1.97;;;4.70;99.90;;;;;;5079327;28;20208;-58
2021/01/19 00:55:32;;;;;;;4.37;1.77;;;4.70;99.90;;;;;;5079184;28;20221;-59
2021/01/19 00:57:58;;;;;;;3.33;1.80;;;4.50;99.90;;;;;;5079245;28;20209;-59
2021/01/19 01:00:24;;;;;;;3.73;1.90;;;4.60;99.90;;;;;;5079250;28;20574;-59
2021/01/19 01:02:50;;;;;;;3.27;2.00;;;4.60;99.90;;;;;;5076915;28;20200;-59
2021/01/19 01:05:17;;;;;;;3.83;1.77;;;4.60;99.90;;;;;;5078945;28;20225;-58
2021/01/19 01:07:44;;;;;;;3.33;1.80;;;4.60;99.90;;;;;;5078052;28;20213;-60
2021/01/19 01:10:12;;;;;;;3.07;1.90;;;4.60;99.90;;;;;;5072831;28;20235;-58
2021/01/19 01:12:39;;;;;;;2.53;1.87;;;4.50;99.90;;;;;;5072769;28;20229;-57
2021/01/19 01:15:07;;;;;;;3.30;1.70;;;4.40;99.90;;;;;;5072518;28;20612;-59
2021/01/19 01:17:35;;;;;;;2.80;1.80;;;4.40;99.90;;;;;;5073033;28;20254;-59
2021/01/19 01:20:03;;;;;;;3.53;1.97;;;4.30;99.90;;;;;;5072730;28;20718;-59
2021/01/19 01:22:30;;;;;;;3.20;1.97;;;4.20;99.90;;;;;;5072746;28;20355;-58
2021/01/19 01:24:56;;;;;;;5.93;2.47;;;4.30;99.90;;;;;;5072509;28;20295;-59
2021/01/19 01:27:22;;;;;;;4.27;2.37;;;4.10;99.90;;;;;;5072452;28;20201;-59
2021/01/19 01:29:48;;;;;;;3.23;2.07;;;4.20;99.90;;;;;;5072428;28;20201;-58
2021/01/19 01:32:15;;;;;;;3.67;1.83;;;4.20;99.90;;;;;;5072503;28;20704;-59
2021/01/19 01:34:41;;;;;;;3.67;1.80;;;4.30;99.90;;;;;;5072318;28;20596;-58
2021/01/19 01:37:07;;;;;;;2.80;1.90;;;4.10;99.90;;;;;;5072405;28;20239;-58
2021/01/19 01:39:34;;;;;;;2.80;1.80;;;4.20;99.90;;;;;;5072262;28;20254;-59
2021/01/19 01:42:00;;;;;;;3.43;2.00;;;4.20;99.90;;;;;;5072224;28;20204;-58
2021/01/19 01:44:26;;;;;;;3.70;1.87;;;4.30;99.90;;;;;;5071982;28;20236;-58
2021/01/19 01:46:52;;;;;;;4.03;1.93;;;4.30;99.90;;;;;;5072097;28;20677;-59
2021/01/19 01:49:19;;;;;;;3.20;1.90;;;4.40;99.90;;;;;;5072130;28;20738;-59
2021/01/19 01:51:45;;;;;;;3.87;2.10;;;4.30;99.90;;;;;;5072060;28;20221;-58
2021/01/19 01:54:11;;;;;;;4.80;2.07;;;4.30;99.90;;;;;;5071984;28;20490;-58
2021/01/19 01:56:38;;;;;;;6.67;2.00;;;4.20;99.90;;;;;;5072004;28;20215;-59
2021/01/19 01:59:04;;;;;;;3.87;2.37;;;4.00;99.90;;;;;;5072115;28;20213;-58
2021/01/19 02:01:31;;;;;;;4.30;2.23;;;4.00;99.90;;;;;;5071988;28;20200;-59
2021/01/19 02:03:57;;;;;;;4.10;2.40;;;3.90;99.90;;;;;;5071694;28;20228;-59
2021/01/19 02:06:24;;;;;;;4.27;2.30;;;3.90;99.90;;;;;;5071921;28;20205;-59
2021/01/19 02:09:01;;;;;;;3.80;1.80;;;3.80;99.90;;;;;;5071611;28;20209;-60
2021/01/19 02:11:35;;;;;;;4.37;2.20;;;3.80;99.90;;;;;;5071680;28;20224;-58
2021/01/19 02:14:10;;;;;;;4.30;2.00;;;3.60;99.90;;;;;;5071647;28;20647;-57
2021/01/19 02:16:48;;;;;;;3.60;2.10;;;3.70;99.90;;;;;;5071672;28;20688;-59
2021/01/19 02:19:41;;;;;;;3.30;1.80;;;3.70;99.90;;;;;;5071583;28;20247;-58
2021/01/19 02:22:30;;;;;;;3.23;2.17;;;3.70;99.90;;;;;;5072069;28;20201;-58
2021/01/19 02:25:12;;;;;;;2.57;1.80;;;3.60;99.90;;;;;;5054446;28;20236;-59
2021/01/19 02:28:04;;;;;;;3.70;1.93;;;3.50;99.90;;;;;;5070579;28;20224;-58
2021/01/19 02:30:41;;;;;;;5.97;2.00;;;3.50;99.90;;;;;;5071674;28;20212;-59
2021/01/19 02:33:15;;;;;;;4.63;2.13;;;3.50;99.90;;;;;;5071427;28;20281;-59
2021/01/19 02:35:49;;;;;;;3.17;1.93;;;3.40;99.90;;;;;;5071098;28;20672;-59
2021/01/19 02:38:23;;;;;;;3.70;1.97;;;3.30;99.90;;;;;;5071079;28;20576;-59
2021/01/19 02:40:54;;;;;;;4.60;2.30;;;3.30;99.90;;;;;;5071255;28;20688;-59
2021/01/19 02:43:25;;;;;;;3.67;2.23;;;3.20;99.90;;;;;;5071380;28;20232;-58
2021/01/19 02:45:52;;;;;;;4.20;2.20;;;3.20;99.90;;;;;;5071236;28;20205;-58
2021/01/19 02:48:19;;;;;;;4.17;2.10;;;3.20;99.90;;;;;;5070986;28;20676;-59
2021/01/19 02:50:45;;;;;;;4.20;2.13;;;3.20;99.90;;;;;;5070840;28;20208;-59
2021/01/19 02:53:12;;;;;;;3.83;2.03;;;3.10;99.90;;;;;;5071213;28;20262;-59
2021/01/19 02:55:39;;;;;;;4.07;1.90;;;3.10;99.90;;;;;;5071086;28;20235;-59
2021/01/19 02:58:16;;;;;;;4.53;2.23;;;3.30;99.90;;;;;;5070946;28;20212;-57
2021/01/19 03:01:01;;;;;;;4.73;2.23;;;3.30;99.90;;;;;;5071168;28;20227;-59
2021/01/19 03:03:33;;;;;;;3.10;1.77;;;3.30;99.90;;;;;;5071003;28;20196;-58
2021/01/19 03:06:03;;;;;;;2.30;1.73;;;3.40;99.90;;;;;;5071137;28;20262;-59
2021/01/19 03:08:33;;;;;;;3.37;1.90;;;3.30;99.90;;;;;;5070967;28;20204;-59
2021/01/19 03:11:02;;;;;;;3.80;1.93;;;3.10;99.90;;;;;;5071205;28;20304;-59
2021/01/19 03:13:30;;;;;;;3.67;1.80;;;3.10;99.90;;;;;;5070720;28;20201;-57
2021/01/19 03:16:05;;;;;;;2.77;1.90;;;3.00;99.90;;;;;;5071045;28;20205;-58
2021/01/19 03:18:33;;;;;;;3.00;1.90;;;3.10;99.90;;;;;;5071237;28;20208;-59
2021/01/19 03:21:00;;;;;;;4.17;2.03;;;3.20;99.90;;;;;;5071184;28;20204;-58
2021/01/19 03:23:26;;;;;;;2.93;1.60;;;3.00;99.90;;;;;;5070684;28;20212;-58
2021/01/19 03:25:52;;;;;;;4.00;1.90;;;3.10;99.90;;;;;;5096339;22;20228;-62
2021/01/19 03:28:18;;;;;;;2.43;1.80;;;3.30;99.90;;;;;;5072590;28;20212;-62
2021/01/19 03:30:44;;;;;;;3.97;1.70;;;3.40;99.90;;;;;;5073239;28;20209;-65
2021/01/19 03:33:11;;;;;;;3.37;2.20;;;3.50;99.90;;;;;;5073059;28;20224;-62
2021/01/19 03:35:39;;;;;;;2.90;1.83;;;3.40;99.90;;;;;;5072295;28;20225;-62
2021/01/19 03:38:05;;;;;;;2.83;1.70;;;3.40;99.90;;;;;;5074460;28;20239;-62
2021/01/19 03:40:31;;;;;;;3.80;2.20;;;3.30;99.90;;;;;;5076793;28;20291;-62
2021/01/19 03:42:58;;;;;;;5.97;2.20;;;3.10;99.90;;;;;;5076308;28;20208;-62
2021/01/19 03:45:24;;;;;;;5.70;2.00;;;3.10;99.90;;;;;;5076664;28;20240;-62
2021/01/19 03:47:50;;;;;;;5.50;2.10;;;3.20;99.90;;;;;;5076110;28;20810;-64
2021/01/19 03:50:16;;;;;;;4.13;1.70;;;3.10;99.90;;;;;;5075450;28;20306;-63
2021/01/19 03:52:43;;;;;;;5.03;1.90;;;3.20;99.90;;;;;;5075642;28;20229;-63
2021/01/19 03:55:11;;;;;;;3.33;1.97;;;3.30;99.90;;;;;;5075822;28;20727;-62
2021/01/19 03:57:37;;;;;;;9.07;2.00;;;3.50;99.90;;;;;;5075631;28;20231;-63
2021/01/19 04:00:05;;;;;;;3.83;2.03;;;3.40;99.90;;;;;;5075719;28;20614;-63
2021/01/19 04:02:31;;;;;;;4.27;2.00;;;3.50;99.90;;;;;;5077496;28;20197;-63
2021/01/19 04:04:57;;;;;;;3.60;1.60;;;3.60;99.90;;;;;;5076915;28;20224;-63
2021/01/19 04:07:25;;;;;;;4.60;1.87;;;3.60;99.90;;;;;;5074740;28;20216;-63
2021/01/19 04:09:52;;;;;;;3.07;1.97;;;3.60;99.90;;;;;;5074528;28;20562;-62
2021/01/19 04:12:18;;;;;;;4.57;1.77;;;3.70;99.90;;;;;;5074943;28;20316;-62
2021/01/19 04:14:44;;;;;;;4.00;1.90;;;3.60;99.90;;;;;;5074743;28;20228;-63
2021/01/19 04:17:11;;;;;;;3.70;2.00;;;3.60;99.90;;;;;;5074866;28;20262;-63
2021/01/19 04:19:37;;;;;;;5.17;2.23;;;3.70;99.90;;;;;;5075166;28;20205;-62
2021/01/19 04:22:03;;;;;;;4.70;1.90;;;3.70;99.90;;;;;;5074716;28;20207;-63
2021/01/19 04:24:29;;;;;;;3.23;2.00;;;3.70;99.90;;;;;;5074304;28;20239;-62
2021/01/19 04:26:57;;;;;;;2.80;1.87;;;3.80;99.90;;;;;;5074289;28;20692;-64
2021/01/19 04:29:23;;;;;;;3.30;2.10;;;3.70;99.90;;;;;;5074476;28;20258;-63
2021/01/19 04:31:49;;;;;;;4.53;2.00;;;3.60;99.90;;;;;;5074528;28;20225;-63
2021/01/19 04:34:15;;;;;;;3.90;1.97;;;3.50;99.90;;;;;;5074158;28;20235;-63
2021/01/19 04:36:42;;;;;;;3.27;2.20;;;3.30;99.90;;;;;;5075010;28;20209;-64
2021/01/19 04:39:08;;;;;;;4.53;1.90;;;3.20;99.90;;;;;;5074400;28;20205;-64
2021/01/19 04:41:36;;;;;;;2.67;2.10;;;3.20;99.90;;;;;;5074719;28;20213;-64
2021/01/19 04:44:04;;;;;;;4.33;1.83;;;3.20;99.90;;;;;;5075204;28;20217;-64
2021/01/19 04:46:31;;;;;;;5.27;1.60;;;3.10;99.90;;;;;;5076800;28;20320;-64
2021/01/19 04:48:58;;;;;;;5.33;1.80;;;2.80;99.90;;;;;;5077886;28;20291;-63
2021/01/19 04:51:26;;;;;;;3.80;1.70;;;3.00;99.90;;;;;;5076528;28;20227;-63
2021/01/19 04:54:00;;;;;;;4.03;1.57;;;3.20;99.90;;;;;;5076847;28;20639;-64
2021/01/19 04:56:28;;;;;;;2.80;1.67;;;3.30;99.90;;;;;;5076868;28;20211;-64
2021/01/19 04:58:55;;;;;;;4.40;1.77;;;3.40;99.90;;;;;;5076680;28;20266;-65
2021/01/19 05:01:39;;;;;;;2.33;1.70;;;3.30;99.90;;;;;;5076885;28;20240;-64
2021/01/19 05:04:44;;;;;;;3.33;1.60;;;3.40;99.90;;;;;;5076439;28;20263;-63
2021/01/19 05:07:49;;;;;;;3.83;2.10;;;3.40;99.90;;;;;;5076191;28;20627;-63
2021/01/19 05:10:15;;;;;;;2.20;1.50;;;3.50;99.90;;;;;;5075938;28;20208;-64
2021/01/19 05:12:42;;;;;;;2.47;1.67;;;3.40;99.90;;;;;;5075665;28;20689;-63
2021/01/19 05:15:11;;;;;;;3.10;1.90;;;3.50;99.90;;;;;;5076289;28;20224;-65
2021/01/19 05:17:39;;;;;;;3.17;1.67;;;3.60;99.90;;;;;;5078109;28;20655;-65
2021/01/19 05:20:07;;;;;;;3.17;1.70;;;3.50;99.90;;;;;;5077089;28;20216;-64
2021/01/19 05:22:33;;;;;;;5.13;2.33;;;3.30;99.90;;;;;;5075876;28;20664;-65
2021/01/19 05:25:00;;;;;;;4.77;1.80;;;3.50;99.90;;;;;;5075632;28;20228;-64
2021/01/19 05:27:26;;;;;;;4.50;1.87;;;3.40;99.90;;;;;;5076249;28;20668;-64
2021/01/19 05:30:00;;;;;;;4.13;2.10;;;3.40;99.90;;;;;;5074723;28;20555;-64
2021/01/19 05:32:40;;;;;;;1.83;1.50;;;3.60;99.90;;;;;;5075166;28;20231;-64
2021/01/19 05:35:17;;;;;;;3.77;2.10;;;3.50;99.90;;;;;;5074923;28;20225;-63
2021/01/19 05:37:55;;;;;;;3.73;1.10;;;3.60;99.90;;;;;;5075213;28;20208;-64
2021/01/19 05:40:21;;;;;;;2.17;1.50;;;3.50;99.90;;;;;;5075687;28;20239;-64
2021/01/19 05:42:47;;;;;;;3.90;2.03;;;3.30;99.90;;;;;;5075914;28;20687;-64
2021/01/19 05:45:14;;;;;;;5.23;1.60;;;3.30;99.90;;;;;;5075380;28;20743;-63
2021/01/19 05:47:43;;;;;;;4.00;1.87;;;3.30;99.90;;;;;;5075193;28;20204;-64
2021/01/19 05:50:10;;;;;;;3.87;1.90;;;3.30;99.90;;;;;;5075098;28;20232;-63
2021/01/19 05:52:37;;;;;;;3.20;1.87;;;3.20;99.90;;;;;;5075393;28;20335;-64
2021/01/19 05:55:04;;;;;;;4.47;2.10;;;3.30;99.90;;;;;;5075159;28;20221;-63
2021/01/19 05:57:30;;;;;;;3.03;1.87;;;3.30;99.90;;;;;;5074917;28;20201;-64
2021/01/19 05:59:58;;;;;;;4.57;2.10;;;3.40;99.90;;;;;;5074967;28;20211;-63
2021/01/19 06:02:36;;;;;;;2.53;2.00;;;3.40;99.90;;;;;;5074734;28;20205;-63
2021/01/19 06:05:09;;;;;;;2.90;1.90;;;3.10;99.90;;;;;;5076330;28;20643;-63
2021/01/19 06:07:37;;;;;;;3.17;2.50;;;3.00;99.90;;;;;;5076240;28;20208;-63
2021/01/19 06:10:09;;;;;;;4.63;2.07;;;3.10;99.90;;;;;;5075359;28;20262;-63
2021/01/19 06:12:36;;;;;;;2.90;1.90;;;2.80;99.90;;;;;;5074842;28;20221;-63
2021/01/19 06:15:03;;;;;;;5.43;2.50;;;3.00;99.90;;;;;;5073674;28;20233;-63
2021/01/19 06:17:29;;;;;;;6.43;2.17;;;3.00;99.90;;;;;;5074086;28;20194;-63
2021/01/19 06:19:59;;;;;;;7.47;2.53;;;3.10;99.90;;;;;;5074090;28;20205;-64
2021/01/19 06:22:28;;;;;;;3.50;2.10;;;3.10;99.90;;;;;;5074000;28;20208;-63
2021/01/19 06:24:56;;;;;;;3.47;2.00;;;3.20;99.90;;;;;;5073524;28;20249;-64
2021/01/19 06:27:27;;;;;;;2.97;1.90;;;3.20;99.90;;;;;;5073807;28;20208;-64
2021/01/19 06:30:07;;;;;;;4.73;1.93;;;3.20;99.90;;;;;;5074993;28;20259;-65
2021/01/19 06:32:36;;;;;;;3.87;2.07;;;3.20;99.90;;;;;;5074835;28;20581;-64
2021/01/19 06:35:14;;;;;;;4.60;2.60;;;3.10;99.90;;;;;;5074300;28;20594;-63
2021/01/19 06:37:42;;;;;;;4.60;2.27;;;3.00;99.90;;;;;;5073274;28;20238;-63
2021/01/19 06:40:09;;;;;;;6.80;2.87;;;3.10;99.90;;;;;;5073485;28;20209;-64
2021/01/19 06:42:36;;;;;;;6.33;3.80;;;3.10;99.90;;;;;;5074365;28;20262;-63
2021/01/19 06:45:06;;;;;;;6.60;2.83;;;3.00;99.90;;;;;;5074224;28;20221;-65
2021/01/19 06:47:41;;;;;;;6.53;2.30;;;3.00;99.90;;;;;;5074833;28;20259;-64
2021/01/19 06:50:08;;;;;;;6.50;2.87;;;3.00;99.90;;;;;;5076395;28;20212;-65
2021/01/19 06:52:38;;;;;;;6.47;2.50;;;3.00;99.90;;;;;;5072843;28;20229;-64
2021/01/19 06:55:17;;;;;;;6.80;3.57;;;3.10;99.90;;;;;;5071604;28;20232;-62
2021/01/19 06:58:16;;;;;;;3.23;2.10;;;3.10;99.90;;;;;;5071328;28;20201;-64
2021/01/19 07:00:43;;;;;;;6.87;2.50;;;3.00;99.90;;;;;;5066252;28;20695;-64
2021/01/19 07:03:23;;;;;;;4.90;2.00;;;3.10;99.90;;;;;;5071711;28;20200;-64
2021/01/19 07:05:51;;;;;;;3.63;2.00;;;3.20;99.90;;;;;;5071786;28;20263;-64
2021/01/19 07:08:47;;;;;;;6.97;3.97;;;3.20;99.90;;;;;;5071900;28;20427;-64
2021/01/19 07:11:41;;;;;;;4.13;1.80;;;3.10;99.90;;;;;;5071834;28;20582;-63
2021/01/19 07:14:11;;;;;;;3.63;2.30;;;3.20;99.90;;;;;;5071519;28;20251;-63
2021/01/19 07:16:56;;;;;;;4.47;2.37;;;3.20;99.90;;;;;;5072088;28;20204;-64
2021/01/19 07:19:30;;;;;;;5.23;2.20;;;3.10;99.90;;;;;;5071900;28;20258;-65
2021/01/19 07:22:04;;;;;;;5.40;2.67;;;3.00;99.90;;;;;;5072033;28;20690;-64
2021/01/19 07:24:39;;;;;;;4.00;2.70;;;2.90;99.90;;;;;;5071542;28;20282;-65
2021/01/19 07:27:09;;;;;;;4.70;2.10;;;2.90;99.90;;;;;;5072033;28;20302;-64
2021/01/19 07:29:37;;;;;;;3.33;1.70;;;3.00;99.90;;;;;;5071390;28;20205;-64
2021/01/19 07:32:08;;;;;;;5.37;2.13;;;2.90;99.90;;;;;;5071142;28;20315;-64
2021/01/19 07:34:37;;;;;;;5.80;2.00;;;3.00;99.90;;;;;;5071805;28;20236;-65
2021/01/19 07:37:03;;;;;;;4.60;2.20;;;3.10;99.90;;;;;;5071695;28;20691;-64
2021/01/19 07:39:32;;;;;;;3.37;2.00;;;3.10;99.90;;;;;;5071089;28;20205;-66
2021/01/19 07:42:11;;;;;;;5.03;2.17;;;3.20;99.90;;;;;;5071547;28;20284;-63
2021/01/19 07:44:37;;;;;;;4.20;2.10;;;3.20;99.90;;;;;;5071187;28;20254;-63
2021/01/19 07:47:11;;;;;;;2.50;1.70;;;3.30;99.90;;;;;;5071400;28;20208;-63
2021/01/19 07:49:37;;;;;;;3.83;2.30;;;3.20;99.90;;;;;;5070972;28;20209;-63
2021/01/19 07:52:13;;;;;;;2.70;1.63;;;3.20;99.90;;;;;;5070870;28;20587;-64
2021/01/19 07:54:40;;;;;;;3.87;2.40;;;3.40;99.90;;;;;;5071117;28;20228;-64
2021/01/19 07:57:16;;;;;;;5.77;2.80;;;3.30;99.90;;;;;;5070817;28;20698;-64
2021/01/19 07:59:44;;;;;;;2.93;2.00;;;3.30;99.90;;;;;;5070985;28;20518;-63
2021/01/19 08:02:22;;;;;;;4.80;2.50;;;3.40;99.90;;;;;;5071236;28;20230;-64
2021/01/19 08:04:58;;;;;;;2.90;1.83;;;3.40;99.90;;;;;;5070968;28;20268;-64
2021/01/19 08:07:25;;;;;;;4.20;2.20;;;3.60;99.90;;;;;;5071050;28;20201;-67
2021/01/19 08:09:51;;;;;;;2.93;1.90;;;3.60;99.90;;;;;;5071208;28;20584;-65
2021/01/19 08:12:18;;;;;;;3.60;2.10;;;3.70;99.90;;;;;;5071020;28;20225;-64
2021/01/19 08:14:45;;;;;;;5.53;2.10;;;3.80;99.90;;;;;;5070898;28;20229;-64
2021/01/19 08:17:13;;;;;;;5.53;3.00;;;3.80;99.90;;;;;;5070905;28;20232;-64
2021/01/19 08:19:42;;;;;;;7.73;2.20;;;3.80;99.90;;;;;;5070713;28;20205;-64
2021/01/19 08:22:09;;;;;;;5.83;2.20;;;3.90;99.90;;;;;;5070479;28;20208;-64
2021/01/19 08:24:35;;;;;;;3.97;2.00;;;4.00;99.90;;;;;;5071134;28;20549;-64
2021/01/19 08:27:01;;;;;;;4.70;2.27;;;4.00;99.90;;;;;;5073974;28;20550;-65
2021/01/19 08:29:29;;;;;;;4.07;2.20;;;4.10;99.80;;;;;;5074015;28;20219;-65
2021/01/19 08:31:57;;;;;;;3.60;2.10;;;4.30;99.70;;;;;;5073936;28;20672;-65
2021/01/19 08:34:25;;;;;;;4.40;1.90;;;4.40;99.50;;;;;;5073564;28;20225;-65
2021/01/19 08:36:51;;;;;;;5.60;1.90;;;4.40;99.50;;;;;;5073691;28;20262;-64
2021/01/19 08:39:19;;;;;;;3.20;2.10;;;4.40;99.50;;;;;;5073877;28;20200;-65
2021/01/19 08:41:47;;;;;;;4.13;2.07;;;4.40;99.50;;;;;;5073792;28;20646;-64
2021/01/19 08:44:14;;;;;;;4.90;1.93;;;4.70;99.30;;;;;;5073757;28;20225;-64
2021/01/19 08:46:42;;;;;;;6.10;2.80;;;4.80;99.20;;;;;;5073407;28;20205;-65
2021/01/19 08:49:10;;;;;;;4.00;1.83;;;5.10;99.00;;;;;;5073064;28;20209;-65
2021/01/19 08:51:37;;;;;;;6.57;2.00;;;5.20;98.70;;;;;;5073486;28;20250;-64
2021/01/19 08:54:08;;;;;;;4.50;1.90;;;5.00;98.70;;;;;;5073289;28;20236;-64
2021/01/19 08:56:38;;;;;;;2.30;1.90;;;5.20;98.70;;;;;;5073561;28;20209;-64
2021/01/19 08:59:04;;;;;;;4.63;2.00;;;5.50;98.40;;;;;;5073178;28;20209;-64
2021/01/19 09:01:31;;;;;;;3.60;2.50;;;5.70;97.80;;;;;;5073155;28;20254;-65
2021/01/19 09:03:59;;;;;;;3.17;1.70;;;5.90;97.60;;;;;;5073331;28;20635;-64
2021/01/19 09:06:25;;;;;;;4.47;1.90;;;6.10;97.20;;;;;;5073514;28;20205;-65
2021/01/19 09:08:59;;;;;;;4.70;2.20;;;6.20;96.90;;;;;;5072956;28;20680;-65
2021/01/19 09:11:30;;;;;;;4.83;2.53;;;6.30;96.60;;;;;;5073149;28;20287;-64
2021/01/19 09:14:06;;;;;;;6.07;2.70;;;6.40;96.30;;;;;;5072662;28;20205;-64
2021/01/19 09:16:33;;;;;;;3.67;2.47;;;6.70;96.10;;;;;;5073223;28;20216;-64
2021/01/19 09:19:02;;;;;;;3.03;2.20;;;6.80;95.70;;;;;;5073005;28;20581;-64
2021/01/19 09:21:28;;;;;;;2.43;2.00;;;6.70;95.20;;;;;;5073294;28;20207;-64
2021/01/19 09:23:55;;;;;;;2.83;1.83;;;6.50;95.20;;;;;;5072694;28;20258;-65
2021/01/19 09:26:22;;;;;;;3.13;2.00;;;6.50;95.30;;;;;;5073394;28;20284;-62
2021/01/19 09:28:48;;;;;;;3.67;2.00;;;6.70;95.50;;;;;;5072805;28;20669;-66
2021/01/19 09:31:17;;;;;;;3.50;2.03;;;6.60;95.00;;;;;;5072886;28;20205;-64
2021/01/19 09:33:45;;;;;;;2.30;1.60;;;6.60;95.20;;;;;;5072448;28;20236;-63
2021/01/19 09:36:13;;;;;;;4.37;2.10;;;6.70;94.90;;;;;;5072303;28;20621;-64
2021/01/19 09:38:40;;;;;;;3.40;1.90;;;6.90;94.80;;;;;;5072404;28;20587;-65
2021/01/19 09:41:07;;;;;;;3.17;1.80;;;7.00;94.40;;;;;;5072240;28;20590;-63
2021/01/19 09:43:33;;;;;;;4.93;2.00;;;6.70;94.40;;;;;;5072714;28;20208;-64
2021/01/19 09:46:02;;;;;;;4.67;2.10;;;6.70;94.40;;;;;;5072865;28;20221;-62
2021/01/19 09:48:30;;;;;;;4.97;3.17;;;6.80;94.50;;;;;;5072488;28;20251;-62
2021/01/19 09:51:01;;;;;;;4.00;2.13;;;6.90;94.50;;;;;;5072515;28;20577;-64
2021/01/19 09:53:30;;;;;;;2.87;1.90;;;7.00;94.40;;;;;;5072168;28;20221;-65
2021/01/19 09:55:57;;;;;;;7.70;2.70;;;7.20;94.30;;;;;;5072278;28;20590;-62
2021/01/19 09:58:24;;;;;;;3.60;2.00;;;7.30;94.10;;;;;;5072606;28;20201;-64
2021/01/19 10:00:51;;;;;;;3.93;1.97;;;7.40;93.90;;;;;;5072957;28;20212;-64
2021/01/19 10:03:20;;;;;;;4.37;1.90;;;7.40;94.10;;;;;;5072529;28;20247;-63
2021/01/19 10:06:01;;;;;;;4.03;2.03;;;7.50;93.90;;;;;;5071901;28;20229;-64
2021/01/19 10:08:28;;;;;;;10.17;4.83;;;7.20;94.00;;;;;;5072145;28;20200;-64
2021/01/19 10:10:55;;;;;;;4.40;2.13;;;7.30;94.10;;;;;;5072276;28;20612;-64
2021/01/19 10:13:26;;;;;;;6.07;2.00;;;7.40;94.00;;;;;;5072262;28;20582;-66
2021/01/19 10:16:03;;;;;;;5.00;2.37;;;7.50;93.80;;;;;;5071858;28;20229;-64
2021/01/19 10:18:30;;;;;;;3.73;2.30;;;7.30;94.00;;;;;;5072003;28;20200;-65
2021/01/19 10:20:56;;;;;;;7.13;4.40;;;7.30;94.10;;;;;;5072178;28;20283;-65
2021/01/19 10:23:28;;;;;;;4.20;2.80;;;7.40;94.10;;;;;;5072041;28;20201;-61
2021/01/19 10:26:04;;;;;;;4.33;2.47;;;7.50;94.00;;;;;;5071802;28;20235;-64
2021/01/19 10:28:36;;;;;;;4.40;2.17;;;7.60;94.00;;;;;;5071935;28;20201;-61
2021/01/19 10:31:15;;;;;;;4.60;2.20;;;7.70;93.70;;;;;;5071855;28;20205;-62
2021/01/19 10:33:52;;;;;;;7.33;2.50;;;7.60;93.50;;;;;;5071567;28;20209;-61
2021/01/19 10:36:19;;;;;;;3.63;2.10;;;7.60;93.60;;;;;;5072107;28;20204;-62
2021/01/19 10:38:46;;;;;;;5.23;2.57;;;7.60;94.00;;;;;;5072028;28;20653;-62
2021/01/19 10:41:23;;;;;;;5.97;2.80;;;7.40;93.80;;;;;;5071902;28;20205;-61
2021/01/19 10:43:51;;;;;;;4.23;2.70;;;7.40;94.40;;;;;;5071755;28;20261;-61
2021/01/19 10:46:20;;;;;;;5.57;2.37;;;7.30;94.00;;;;;;5071898;28;20389;-60
2021/01/19 10:48:47;;;;;;;8.17;2.90;;;6.90;94.00;;;;;;5070873;28;20212;-58
2021/01/19 10:51:13;;;;;;;5.07;2.77;;;7.00;94.80;;;;;;5071722;28;20205;-61
2021/01/19 10:53:41;;;;;;;8.90;2.70;;;7.10;95.00;;;;;;5071150;28;20229;-61
2021/01/19 10:56:14;;;;;;;5.93;3.03;;;7.20;94.80;;;;;;5071148;28;20240;-61
2021/01/19 10:58:40;;;;;;;4.43;2.50;;;7.30;94.60;;;;;;5071248;28;20672;-61
2021/01/19 11:01:06;;;;;;;4.50;2.53;;;7.40;94.60;;;;;;5071199;28;20205;-61
2021/01/19 11:03:32;;;;;;;4.87;2.43;;;7.30;94.80;;;;;;5070981;28;20668;-61
2021/01/19 11:05:59;;;;;;;5.07;3.03;;;7.40;94.90;;;;;;5071260;28;20607;-61
2021/01/19 11:08:25;;;;;;;6.33;2.70;;;7.40;95.20;;;;;;5071187;28;20591;-61
2021/01/19 11:10:52;;;;;;;4.03;2.60;;;7.50;95.20;;;;;;5071008;28;20495;-61
2021/01/19 11:13:19;;;;;;;5.23;2.80;;;7.50;95.40;;;;;;5071274;28;20232;-61
2021/01/19 11:15:45;;;;;;;4.73;2.83;;;7.50;95.40;;;;;;5070822;28;20281;-62
2021/01/19 11:18:11;;;;;;;7.75;3.17;;;7.40;95.60;;;;;;5057520;28;20451;-64
2021/01/19 11:20:39;;;;;;;6.70;2.93;;;7.40;96.00;;;;;;5050936;28;20685;-65
2021/01/19 11:23:05;;;;;;;7.77;2.80;;;7.60;96.00;;;;;;5050551;28;20231;-65
2021/01/19 11:25:32;;;;;;;4.50;2.47;;;7.70;95.50;;;;;;5050373;28;20609;-66
2021/01/19 11:27:58;;;;;;;3.70;2.30;;;7.70;95.40;;;;;;5050357;28;20201;-63
2021/01/19 11:30:25;;;;;;;6.47;2.90;;;7.80;95.70;;;;;;5050923;28;20259;-61
2021/01/19 11:32:51;;;;;;;4.30;2.37;;;8.00;95.70;;;;;;5050833;28;20226;-62
2021/01/19 11:35:18;;;;;;;5.87;2.60;;;8.10;95.80;;;;;;5050607;28;20225;-62
2021/01/19 11:37:44;;;;;;;6.67;3.20;;;8.00;95.40;;;;;;5050484;28;20202;-62
2021/01/19 11:40:10;;;;;;;8.30;3.90;;;8.10;94.90;;;;;;5049231;28;20221;-61
2021/01/19 11:42:37;;;;;;;7.47;4.00;;;8.10;95.20;;;;;;5049938;28;20202;-63
2021/01/19 11:45:04;;;;;;;5.57;2.80;;;8.10;95.10;;;;;;5049539;28;20226;-62
2021/01/19 11:47:31;;;;;;;4.37;2.40;;;8.00;94.80;;;;;;5050542;28;20488;-62
2021/01/19 11:49:57;;;;;;;4.40;2.93;;;8.00;94.90;;;;;;5050366;28;20220;-62
2021/01/19 11:52:23;;;;;;;3.87;2.63;;;8.00;94.90;;;;;;5050295;28;20221;-63
2021/01/19 11:54:50;;;;;;;4.43;2.90;;;8.00;94.60;;;;;;5050473;28;20290;-63
2021/01/19 11:57:16;;;;;;;4.93;2.73;;;8.00;94.90;;;;;;5050811;28;20214;-62
2021/01/19 11:59:43;;;;;;;3.77;2.50;;;8.00;94.80;;;;;;5053323;28;20216;-62
2021/01/19 12:02:09;;;;;;;4.10;2.50;;;8.10;94.90;;;;;;5054336;28;20202;-61
2021/01/19 12:04:36;;;;;;;5.40;2.83;;;8.20;94.60;;;;;;5054919;28;20303;-63
2021/01/19 12:07:03;;;;;;;6.50;2.67;;;8.20;94.50;;;;;;5054059;28;20212;-64
2021/01/19 12:09:29;;;;;;;5.20;2.50;;;8.20;94.10;;;;;;5054424;28;20327;-63
2021/01/19 12:11:55;;;;;;;5.87;2.90;;;8.20;94.00;;;;;;5054408;28;20216;-64
2021/01/19 12:14:22;;;;;;;5.67;3.20;;;8.20;94.10;;;;;;5054317;28;20236;-65
2021/01/19 12:16:52;;;;;;;7.63;3.83;;;8.10;94.10;;;;;;5054036;28;20685;-61
2021/01/19 12:19:18;;;;;;;4.67;3.43;;;8.10;94.20;;;;;;5053882;28;20210;-61
2021/01/19 12:21:49;;;;;;;5.20;3.07;;;8.10;94.60;;;;;;5056586;28;20205;-62
2021/01/19 12:24:15;;;;;;;3.73;2.53;;;8.10;94.90;;;;;;5073803;28;20232;-64
2021/01/19 12:26:44;;;;;;;6.67;2.87;;;8.00;94.80;;;;;;5073860;28;20665;-63
2021/01/19 12:29:10;;;;;;;4.83;2.80;;;7.80;95.00;;;;;;5058811;28;20237;-61
2021/01/19 12:31:37;;;;;;;4.27;2.90;;;7.70;95.20;;;;;;5055934;28;20213;-62
2021/01/19 12:34:03;;;;;;;8.33;3.10;;;7.60;95.10;;;;;;5055270;28;20229;-62
2021/01/19 12:36:29;;;;;;;4.53;2.70;;;7.70;95.00;;;;;;5054584;28;20212;-64
2021/01/19 12:38:58;;;;;;;6.47;2.97;;;7.80;95.30;;;;;;5054675;28;20723;-63
2021/01/19 12:41:24;;;;;;;4.40;2.70;;;7.90;95.30;;;;;;5055355;28;20205;-63
2021/01/19 12:43:50;;;;;;;6.30;3.23;;;8.00;94.90;;;;;;5054749;28;20228;-63
2021/01/19 12:46:17;;;;;;;5.60;3.47;;;8.00;94.90;;;;;;5055384;28;20213;-63
2021/01/19 12:48:44;;;;;;;7.90;2.77;;;8.10;94.90;;;;;;5055210;28;20273;-62
2021/01/19 12:51:14;;;;;;;4.90;2.80;;;8.10;94.80;;;;;;5055698;28;20220;-63
2021/01/19 12:53:41;;;;;;;4.93;2.80;;;8.20;95.10;;;;;;5056200;28;20229;-63
2021/01/19 12:56:10;;;;;;;5.87;3.13;;;8.30;94.70;;;;;;5056133;28;20202;-63
2021/01/19 12:58:37;;;;;;;4.83;3.00;;;8.20;94.70;;;;;;5055779;28;20205;-63
2021/01/19 13:01:04;;;;;;;6.93;3.27;;;8.20;94.90;;;;;;5055867;28;20912;-64
2021/01/19 13:03:30;;;;;;;4.13;2.90;;;8.30;94.90;;;;;;5056079;28;20212;-64
2021/01/19 13:05:57;;;;;;;5.10;2.47;;;8.40;94.90;;;;;;5056197;28;20232;-62
2021/01/19 13:08:24;;;;;;;7.73;2.87;;;8.40;95.00;;;;;;5055744;28;20586;-63